createdAt,value
2018-06-08T00:00:16.567Z,80.18
2018-06-08T00:01:16.579Z,79.89
2018-06-08T00:02:37.589Z,79.79
2018-06-08T00:03:16.585Z,80.08
2018-06-08T00:04:16.603Z,79.79
2018-06-08T00:05:16.590Z,79.60
2018-06-08T00:06:16.630Z,79.79
2018-06-08T00:07:16.599Z,79.69
2018-06-08T00:08:37.617Z,79.79
2018-06-08T00:09:16.609Z,80.37
2018-06-08T00:10:16.698Z,79.98
2018-06-08T00:11:16.614Z,80.46
2018-06-08T00:12:16.623Z,80.18
2018-06-08T00:13:16.629Z,80.18
2018-06-08T00:14:37.647Z,80.18
2018-06-08T00:15:16.639Z,80.85
2018-06-08T00:16:16.634Z,80.56
2018-06-08T00:17:16.640Z,81.04
2018-06-08T00:18:16.645Z,81.04
2018-06-08T00:19:16.649Z,81.14
2018-06-08T00:20:37.758Z,81.04
2018-06-08T00:21:16.658Z,81.04
2018-06-08T00:22:16.663Z,81.14
2018-06-08T00:23:16.665Z,80.56
2018-06-08T00:24:16.672Z,80.85
2018-06-08T00:25:16.677Z,81.04
2018-06-08T00:26:37.690Z,80.76
2018-06-08T00:27:16.678Z,81.04
2018-06-08T00:28:16.685Z,80.76
2018-06-08T00:29:16.689Z,80.56
2018-06-08T00:30:16.696Z,80.85
2018-06-08T00:31:16.699Z,80.85
2018-06-08T00:32:37.718Z,81.14
2018-06-08T00:33:16.705Z,80.85
2018-06-08T00:34:16.712Z,80.85
2018-06-08T00:35:16.712Z,81.04
2018-06-08T00:36:16.723Z,80.85
2018-06-08T00:37:16.722Z,80.94
2018-06-08T00:38:37.740Z,80.85
2018-06-08T00:39:16.734Z,80.76
2018-06-08T00:40:16.801Z,81.14
2018-06-08T00:41:16.745Z,81.58
2018-06-08T00:42:16.745Z,81.62
2018-06-08T00:43:16.749Z,80.71
2018-06-08T00:44:37.760Z,81.43
2018-06-08T00:45:16.754Z,80.76
2018-06-08T00:46:16.758Z,80.66
2018-06-08T00:47:16.774Z,80.76
2018-06-08T00:48:16.770Z,80.85
2018-06-08T00:49:16.769Z,80.94
2018-06-08T00:50:37.862Z,81.52
2018-06-08T00:51:16.901Z,81.24
2018-06-08T00:52:16.789Z,81.14
2018-06-08T00:53:16.826Z,81.43
2018-06-08T00:54:16.792Z,81.20
2018-06-08T00:55:16.802Z,81.24
2018-06-08T00:56:37.809Z,81.10
2018-06-08T00:57:16.808Z,81.33
2018-06-08T00:58:16.812Z,81.39
2018-06-08T00:59:16.816Z,81.01
2018-06-08T01:00:16.818Z,81.33
2018-06-08T01:01:16.827Z,81.48
2018-06-08T01:02:37.833Z,81.24
2018-06-08T01:03:16.828Z,81.01
2018-06-08T01:04:16.837Z,81.48
2018-06-08T01:05:16.839Z,81.48
2018-06-08T01:06:16.840Z,81.48
2018-06-08T01:07:16.843Z,81.48
2018-06-08T01:08:37.858Z,81.48
2018-06-08T01:09:16.855Z,81.29
2018-06-08T01:10:16.856Z,81.24
2018-06-08T01:11:16.861Z,81.20
2018-06-08T01:12:16.868Z,81.10
2018-06-08T01:13:16.868Z,81.58
2018-06-08T01:14:37.878Z,81.20
2018-06-08T01:15:16.876Z,81.29
2018-06-08T01:16:16.881Z,81.48
2018-06-08T01:17:16.885Z,81.68
2018-06-08T01:18:16.889Z,81.39
2018-06-08T01:19:16.891Z,81.77
2018-06-08T01:20:37.968Z,81.77
2018-06-08T01:21:16.901Z,81.77
2018-06-08T01:22:17.299Z,81.77
2018-06-08T01:23:16.909Z,81.77
2018-06-08T01:24:16.913Z,81.68
2018-06-08T01:25:16.917Z,81.68
2018-06-08T01:26:37.932Z,81.39
2018-06-08T01:27:16.931Z,81.96
2018-06-08T01:28:16.934Z,81.68
2018-06-08T01:29:16.936Z,81.68
2018-06-08T01:30:16.940Z,81.77
2018-06-08T01:31:16.950Z,81.77
2018-06-08T01:32:37.956Z,81.77
2018-06-08T01:33:16.950Z,81.58
2018-06-08T01:34:16.957Z,81.77
2018-06-08T01:35:16.997Z,81.87
2018-06-08T01:36:16.961Z,81.77
2018-06-08T01:37:16.961Z,81.39
2018-06-08T01:38:37.983Z,81.58
2018-06-08T01:39:16.975Z,81.39
2018-06-08T01:40:17.009Z,82.16
2018-06-08T01:41:16.989Z,81.96
2018-06-08T01:42:16.987Z,81.68
2018-06-08T01:43:16.986Z,81.87
2018-06-08T01:44:38.013Z,82.64
2018-06-08T01:45:16.998Z,82.16
2018-06-08T01:46:17.001Z,82.35
2018-06-08T01:47:17.003Z,82.26
2018-06-08T01:48:17.029Z,82.74
2018-06-08T01:49:17.012Z,82.93
2018-06-08T01:50:38.066Z,82.93
2018-06-08T01:51:17.022Z,82.83
2018-06-08T01:52:17.027Z,83.22
2018-06-08T01:53:17.679Z,83.03
2018-06-08T01:54:17.029Z,82.74
2018-06-08T01:55:17.041Z,82.93
2018-06-08T01:56:38.050Z,83.12
2018-06-08T01:57:17.041Z,82.93
2018-06-08T01:58:17.049Z,82.93
2018-06-08T01:59:17.050Z,82.93
2018-06-08T02:00:17.053Z,82.83
2018-06-08T02:01:17.057Z,82.74
2018-06-08T02:02:38.072Z,82.74
2018-06-08T02:03:17.072Z,83.31
2018-06-08T02:04:17.067Z,83.41
2018-06-08T02:05:17.072Z,83.47
2018-06-08T02:06:17.076Z,83.51
2018-06-08T02:07:17.079Z,83.51
2018-06-08T02:08:38.097Z,83.51
2018-06-08T02:09:17.091Z,83.95
2018-06-08T02:10:17.091Z,83.66
2018-06-08T02:11:17.094Z,83.61
2018-06-08T02:12:17.101Z,83.56
2018-06-08T02:13:17.108Z,83.47
2018-06-08T02:14:38.119Z,84.33
2018-06-08T02:15:17.123Z,83.95
2018-06-08T02:16:17.113Z,84.14
2018-06-08T02:17:17.114Z,84.43
2018-06-08T02:18:17.120Z,84.43
2018-06-08T02:19:17.123Z,84.14
2018-06-08T02:20:38.165Z,84.05
2018-06-08T02:21:17.130Z,84.23
2018-06-08T02:22:17.140Z,84.23
2018-06-08T02:23:17.139Z,84.62
2018-06-08T02:24:18.082Z,84.53
2018-06-08T02:25:17.150Z,84.05
2018-06-08T02:26:38.160Z,84.53
2018-06-08T02:27:17.153Z,84.81
2018-06-08T02:28:17.160Z,84.81
2018-06-08T02:29:17.162Z,85.20
2018-06-08T02:30:17.169Z,85.06
2018-06-08T02:31:17.169Z,85.25
2018-06-08T02:32:38.179Z,85.10
2018-06-08T02:33:17.180Z,85.35
2018-06-08T02:34:17.179Z,85.44
2018-06-08T02:35:17.191Z,85.54
2018-06-08T02:36:17.192Z,85.44
2018-06-08T02:37:17.190Z,85.64
2018-06-08T02:38:38.205Z,85.74
2018-06-08T02:39:17.202Z,85.93
2018-06-08T02:40:17.199Z,85.83
2018-06-08T02:41:17.203Z,86.12
2018-06-08T02:42:17.234Z,85.93
2018-06-08T02:43:17.215Z,85.93
2018-06-08T02:44:38.245Z,86.41
2018-06-08T02:45:17.217Z,86.89
2018-06-08T02:46:17.221Z,86.75
2018-06-08T02:47:17.225Z,86.79
2018-06-08T02:48:17.236Z,86.89
2018-06-08T02:49:17.240Z,87.27
2018-06-08T02:50:38.268Z,87.13
2018-06-08T02:51:17.237Z,87.18
2018-06-08T02:52:17.244Z,87.56
2018-06-08T02:53:17.256Z,87.62
2018-06-08T02:54:17.248Z,87.62
2018-06-08T02:55:17.267Z,87.46
2018-06-08T02:56:38.274Z,87.90
2018-06-08T02:57:17.260Z,87.71
2018-06-08T02:58:17.265Z,87.33
2018-06-08T02:59:17.268Z,87.04
2018-06-08T03:00:17.271Z,87.33
2018-06-08T03:01:17.277Z,87.33
2018-06-08T03:02:38.286Z,87.52
2018-06-08T03:03:17.285Z,87.33
2018-06-08T03:04:17.283Z,87.42
2018-06-08T03:05:17.312Z,87.42
2018-06-08T03:06:17.301Z,87.42
2018-06-08T03:07:17.293Z,87.42
2018-06-08T03:08:38.311Z,87.62
2018-06-08T03:09:17.305Z,87.42
2018-06-08T03:10:17.413Z,87.42
2018-06-08T03:11:17.309Z,87.52
2018-06-08T03:12:17.308Z,87.81
2018-06-08T03:13:17.310Z,87.52
2018-06-08T03:14:38.329Z,87.52
2018-06-08T03:15:17.320Z,87.52
2018-06-08T03:16:17.325Z,87.90
2018-06-08T03:17:17.327Z,87.52
2018-06-08T03:18:38.339Z,87.62
2018-06-08T03:19:38.340Z,87.52
2018-06-08T03:20:17.338Z,87.62
2018-06-08T03:21:17.344Z,87.71
2018-06-08T03:22:17.344Z,87.81
2018-06-08T03:23:17.351Z,87.81
2018-06-08T03:24:17.354Z,88.00
2018-06-08T03:25:38.365Z,88.00
2018-06-08T03:26:17.355Z,87.62
2018-06-08T03:27:17.357Z,87.71
2018-06-08T03:28:17.362Z,88.00
2018-06-08T03:29:17.365Z,87.90
2018-06-08T03:30:17.371Z,87.81
2018-06-08T03:31:38.377Z,88.00
2018-06-08T03:32:17.376Z,87.52
2018-06-08T03:33:17.375Z,87.71
2018-06-08T03:34:17.382Z,87.71
2018-06-08T03:35:17.386Z,87.71
2018-06-08T03:36:17.389Z,87.52
2018-06-08T03:37:38.405Z,87.62
2018-06-08T03:38:17.409Z,87.81
2018-06-08T03:39:17.393Z,88.00
2018-06-08T03:40:17.409Z,88.00
2018-06-08T03:41:17.402Z,87.42
2018-06-08T03:42:17.409Z,87.42
2018-06-08T03:43:38.420Z,87.81
2018-06-08T03:44:17.412Z,87.33
2018-06-08T03:45:17.414Z,87.42
2018-06-08T03:46:17.433Z,87.33
2018-06-08T03:47:17.432Z,87.42
2018-06-08T03:48:17.426Z,87.08
2018-06-08T03:49:38.438Z,87.27
2018-06-08T03:50:17.435Z,87.27
2018-06-08T03:51:17.439Z,86.75
2018-06-08T03:52:17.437Z,86.75
2018-06-08T03:53:17.442Z,86.56
2018-06-08T03:54:17.443Z,86.60
2018-06-08T03:55:38.459Z,86.75
2018-06-08T03:56:17.450Z,87.33
2018-06-08T03:57:17.453Z,87.23
2018-06-08T03:58:17.464Z,87.42
2018-06-08T03:59:17.459Z,87.13
2018-06-08T04:00:17.463Z,87.13
2018-06-08T04:01:38.481Z,87.04
2018-06-08T04:02:17.475Z,87.71
2018-06-08T04:03:17.477Z,87.42
2018-06-08T04:04:17.475Z,87.52
2018-06-08T04:05:17.485Z,87.81
2018-06-08T04:06:17.485Z,87.52
2018-06-08T04:07:39.343Z,88.00
2018-06-08T04:08:17.503Z,87.52
2018-06-08T04:09:17.491Z,87.52
2018-06-08T04:10:17.495Z,87.81
2018-06-08T04:11:17.497Z,87.42
2018-06-08T04:12:17.503Z,87.62
2018-06-08T04:13:38.517Z,87.33
2018-06-08T04:14:17.508Z,87.95
2018-06-08T04:15:17.512Z,87.37
2018-06-08T04:16:17.517Z,87.66
2018-06-08T04:17:17.518Z,87.27
2018-06-08T04:18:17.521Z,87.27
2018-06-08T04:19:38.532Z,87.08
2018-06-08T04:20:17.538Z,87.27
2018-06-08T04:21:17.543Z,87.46
2018-06-08T04:22:17.551Z,87.46
2018-06-08T04:23:17.536Z,86.79
2018-06-08T04:24:17.542Z,87.27
2018-06-08T04:25:38.658Z,87.37
2018-06-08T04:26:17.553Z,87.56
2018-06-08T04:27:17.607Z,88.33
2018-06-08T04:28:17.555Z,88.43
2018-06-08T04:29:17.556Z,87.56
2018-06-08T04:30:17.562Z,87.41
2018-06-08T04:31:38.583Z,86.65
2018-06-08T04:32:17.571Z,86.83
2018-06-08T04:33:17.575Z,86.69
2018-06-08T04:34:17.583Z,86.83
2018-06-08T04:35:17.579Z,86.16
2018-06-08T04:36:17.616Z,86.35
2018-06-08T04:37:38.594Z,86.55
2018-06-08T04:38:17.588Z,86.35
2018-06-08T04:39:17.607Z,86.07
2018-06-08T04:40:17.594Z,86.30
2018-06-08T04:41:17.596Z,86.69
2018-06-08T04:42:17.598Z,86.88
2018-06-08T04:43:38.613Z,86.88
2018-06-08T04:44:17.606Z,86.98
2018-06-08T04:45:17.625Z,86.98
2018-06-08T04:46:17.625Z,86.59
2018-06-08T04:47:17.617Z,87.07
2018-06-08T04:48:17.620Z,86.59
2018-06-08T04:49:38.637Z,86.78
2018-06-08T04:50:17.629Z,86.69
2018-06-08T04:51:17.630Z,86.35
2018-06-08T04:52:17.645Z,86.40
2018-06-08T04:53:17.635Z,85.96
2018-06-08T04:54:17.642Z,85.86
2018-06-08T04:55:38.655Z,85.96
2018-06-08T04:56:17.654Z,85.96
2018-06-08T04:57:17.652Z,85.19
2018-06-08T04:58:18.000Z,84.99
2018-06-08T04:59:17.662Z,85.28
2018-06-08T05:00:17.664Z,85.03
2018-06-08T05:01:38.682Z,84.65
2018-06-08T05:02:17.680Z,84.75
2018-06-08T05:03:17.683Z,84.27
2018-06-08T05:04:17.685Z,83.98
2018-06-08T05:05:17.686Z,84.46
2018-06-08T05:06:17.692Z,83.44
2018-06-08T05:07:38.705Z,82.76
2018-06-08T05:08:17.697Z,82.23
2018-06-08T05:09:17.701Z,81.55
2018-06-08T05:10:17.714Z,81.07
2018-06-08T05:11:17.738Z,81.07
2018-06-08T05:12:17.714Z,80.62
2018-06-08T05:13:38.734Z,79.41
2018-06-08T05:14:17.725Z,79.02
2018-06-08T05:15:17.727Z,79.12
2018-06-08T05:16:17.733Z,78.06
2018-06-08T05:17:17.734Z,77.61
2018-06-08T05:18:17.740Z,77.61
2018-06-08T05:19:38.756Z,77.96
2018-06-08T05:20:17.748Z,77.57
2018-06-08T05:21:17.754Z,77.28
2018-06-08T05:22:17.769Z,77.71
2018-06-08T05:23:17.766Z,76.87
2018-06-08T05:24:17.769Z,75.91
2018-06-08T05:25:38.783Z,75.91
2018-06-08T05:26:17.844Z,75.33
2018-06-08T05:27:17.782Z,75.62
2018-06-08T05:28:17.790Z,75.13
2018-06-08T05:29:18.389Z,75.33
2018-06-08T05:30:17.805Z,74.49
2018-06-08T05:31:38.815Z,74.11
2018-06-08T05:32:17.811Z,74.01
2018-06-08T05:33:17.811Z,74.21
2018-06-08T05:34:17.845Z,73.18
2018-06-08T05:35:17.822Z,72.21
2018-06-08T05:36:17.826Z,72.30
2018-06-08T05:37:38.845Z,72.69
2018-06-08T05:38:17.842Z,73.33
2018-06-08T05:39:17.848Z,73.04
2018-06-08T05:40:17.850Z,73.72
2018-06-08T05:41:17.858Z,74.65
2018-06-08T05:42:17.865Z,74.49
2018-06-08T05:43:38.872Z,74.49
2018-06-08T05:44:17.872Z,74.40
2018-06-08T05:45:17.876Z,74.07
2018-06-08T05:46:17.886Z,74.85
2018-06-08T05:47:17.887Z,75.43
2018-06-08T05:48:17.919Z,75.13
2018-06-08T05:49:38.911Z,74.85
2018-06-08T05:50:17.903Z,74.49
2018-06-08T05:51:17.914Z,74.11
2018-06-08T05:52:17.917Z,73.43
2018-06-08T05:53:17.917Z,72.98
2018-06-08T05:54:18.002Z,73.18
2018-06-08T05:55:38.939Z,72.60
2018-06-08T05:56:17.936Z,72.11
2018-06-08T05:57:17.941Z,72.11
2018-06-08T05:58:17.947Z,71.95
2018-06-08T05:59:17.953Z,71.28
2018-06-08T06:00:18.873Z,70.89
2018-06-08T06:01:38.973Z,70.79
2018-06-08T06:02:17.967Z,71.56
2018-06-08T06:03:17.973Z,71.28
2018-06-08T06:04:17.983Z,71.08
2018-06-08T06:05:18.008Z,71.28
2018-06-08T06:06:17.994Z,71.76
2018-06-08T06:07:39.008Z,71.72
2018-06-08T06:08:18.000Z,71.53
2018-06-08T06:09:18.006Z,71.62
2018-06-08T06:10:18.013Z,72.30
2018-06-08T06:11:18.016Z,72.89
2018-06-08T06:12:18.033Z,72.34
2018-06-08T06:13:39.040Z,71.76
2018-06-08T06:14:18.041Z,71.60
2018-06-08T06:15:18.038Z,70.83
2018-06-08T06:16:18.044Z,70.15
2018-06-08T06:17:18.050Z,69.99
2018-06-08T06:18:18.061Z,69.50
2018-06-08T06:19:39.084Z,68.66
2018-06-08T06:20:18.073Z,68.73
2018-06-08T06:21:18.074Z,70.15
2018-06-08T06:22:18.081Z,71.02
2018-06-08T06:23:18.086Z,70.63
2018-06-08T06:24:18.102Z,72.05
2018-06-08T06:25:39.107Z,71.37
2018-06-08T06:26:18.107Z,71.37
2018-06-08T06:27:18.106Z,71.95
2018-06-08T06:28:18.113Z,71.62
2018-06-08T06:29:18.119Z,71.56
2018-06-08T06:30:18.132Z,71.62
2018-06-08T06:31:39.494Z,71.62
2018-06-08T06:32:18.139Z,71.72
2018-06-08T06:33:18.141Z,72.21
2018-06-08T06:34:18.150Z,72.89
2018-06-08T06:35:18.183Z,72.30
2018-06-08T06:36:18.158Z,72.30
2018-06-08T06:37:39.185Z,72.40
2018-06-08T06:38:18.171Z,72.27
2018-06-08T06:39:18.217Z,72.66
2018-06-08T06:40:18.181Z,73.14
2018-06-08T06:41:18.195Z,73.18
2018-06-08T06:42:18.191Z,73.27
2018-06-08T06:43:39.212Z,73.27
2018-06-08T06:44:18.201Z,72.69
2018-06-08T06:45:18.211Z,72.11
2018-06-08T06:46:18.218Z,72.21
2018-06-08T06:47:18.219Z,71.04
2018-06-08T06:48:18.224Z,71.24
2018-06-08T06:49:39.244Z,71.14
2018-06-08T06:50:18.241Z,71.34
2018-06-08T06:51:18.245Z,71.62
2018-06-08T06:52:18.248Z,71.14
2018-06-08T06:53:18.252Z,71.62
2018-06-08T06:54:18.299Z,70.56
2018-06-08T06:55:39.277Z,70.47
2018-06-08T06:56:18.269Z,70.08
2018-06-08T06:57:18.284Z,70.18
2018-06-08T06:58:18.280Z,70.08
2018-06-08T06:59:18.282Z,70.18
2018-06-08T07:00:18.297Z,70.27
2018-06-08T07:01:39.310Z,70.18
2018-06-08T07:02:18.301Z,70.47
2018-06-08T07:03:18.307Z,71.14
2018-06-08T07:04:18.311Z,70.62
2018-06-08T07:05:18.317Z,71.34
2018-06-08T07:06:18.324Z,71.92
2018-06-08T07:07:39.344Z,71.04
2018-06-08T07:08:18.333Z,71.24
2018-06-08T07:09:18.339Z,71.04
2018-06-08T07:10:18.352Z,71.24
2018-06-08T07:11:18.348Z,71.34
2018-06-08T07:12:18.351Z,70.37
2018-06-08T07:13:39.374Z,71.34
2018-06-08T07:14:18.366Z,70.86
2018-06-08T07:15:18.585Z,71.14
2018-06-08T07:16:18.393Z,69.98
2018-06-08T07:17:18.382Z,70.27
2018-06-08T07:18:18.392Z,69.82
2018-06-08T07:19:39.404Z,69.89
2018-06-08T07:20:18.399Z,69.40
2018-06-08T07:21:18.406Z,69.11
2018-06-08T07:22:18.409Z,69.05
2018-06-08T07:23:18.413Z,68.47
2018-06-08T07:24:18.430Z,68.76
2018-06-08T07:25:39.471Z,68.47
2018-06-08T07:26:18.440Z,68.37
2018-06-08T07:27:18.440Z,68.47
2018-06-08T07:28:18.445Z,68.27
2018-06-08T07:29:18.446Z,67.50
2018-06-08T07:30:18.459Z,67.50
2018-06-08T07:31:39.579Z,67.11
2018-06-08T07:32:18.463Z,66.72
2018-06-08T07:33:18.470Z,66.53
2018-06-08T07:34:18.489Z,67.21
2018-06-08T07:35:18.485Z,67.05
2018-06-08T07:36:18.494Z,66.24
2018-06-08T07:37:39.502Z,65.08
2018-06-08T07:38:18.515Z,64.79
2018-06-08T07:39:18.501Z,64.92
2018-06-08T07:40:18.639Z,64.24
2018-06-08T07:41:18.553Z,64.14
2018-06-08T07:42:18.521Z,64.62
2018-06-08T07:43:40.221Z,64.24
2018-06-08T07:44:18.533Z,62.88
2018-06-08T07:45:18.534Z,63.37
2018-06-08T07:46:18.543Z,63.17
2018-06-08T07:47:18.548Z,62.88
2018-06-08T07:48:18.552Z,61.43
2018-06-08T07:49:39.573Z,60.85
2018-06-08T07:50:18.564Z,60.75
2018-06-08T07:51:18.575Z,60.20
2018-06-08T07:52:18.590Z,60.39
2018-06-08T07:53:18.591Z,59.23
2018-06-08T07:54:18.585Z,58.74
2018-06-08T07:55:39.600Z,58.45
2018-06-08T07:56:18.604Z,59.13
2018-06-08T07:57:18.605Z,58.16
2018-06-08T07:58:18.613Z,58.06
2018-06-08T07:59:18.699Z,58.26
2018-06-08T08:00:18.624Z,58.16
2018-06-08T08:01:39.651Z,58.16
2018-06-08T08:02:18.633Z,58.16
2018-06-08T08:03:18.643Z,58.06
2018-06-08T08:04:18.653Z,57.80
2018-06-08T08:05:18.653Z,58.19
2018-06-08T08:06:18.664Z,58.19
2018-06-08T08:07:39.673Z,57.51
2018-06-08T08:08:18.683Z,57.22
2018-06-08T08:09:18.726Z,58.48
2018-06-08T08:10:18.695Z,58.19
2018-06-08T08:11:18.685Z,58.29
2018-06-08T08:12:18.697Z,58.12
2018-06-08T08:13:39.714Z,58.41
2018-06-08T08:14:18.700Z,59.09
2018-06-08T08:15:18.713Z,58.61
2018-06-08T08:16:18.713Z,57.83
2018-06-08T08:17:18.724Z,56.47
2018-06-08T08:18:18.727Z,55.79
2018-06-08T08:19:39.749Z,56.47
2018-06-08T08:20:18.737Z,56.57
2018-06-08T08:21:18.763Z,56.30
2018-06-08T08:22:18.760Z,56.60
2018-06-08T08:23:18.755Z,56.47
2018-06-08T08:24:18.761Z,56.50
2018-06-08T08:25:39.792Z,56.30
2018-06-08T08:26:18.776Z,56.89
2018-06-08T08:27:18.781Z,56.79
2018-06-08T08:28:18.797Z,56.89
2018-06-08T08:29:18.794Z,56.72
2018-06-08T08:30:18.798Z,55.88
2018-06-08T08:31:39.811Z,55.61
2018-06-08T08:32:18.818Z,54.54
2018-06-08T08:33:18.820Z,53.30
2018-06-08T08:34:18.980Z,51.99
2018-06-08T08:35:18.829Z,51.24
2018-06-08T08:36:18.843Z,49.15
2018-06-08T08:37:39.854Z,47.63
2018-06-08T08:38:18.851Z,46.88
2018-06-08T08:39:18.858Z,45.82
2018-06-08T08:40:18.867Z,44.59
2018-06-08T08:41:18.876Z,43.73
2018-06-08T08:42:18.879Z,42.88
2018-06-08T08:43:39.907Z,42.11
2018-06-08T08:44:18.894Z,41.25
2018-06-08T08:45:18.935Z,40.48
2018-06-08T08:46:18.909Z,39.90
2018-06-08T08:47:18.924Z,39.61
2018-06-08T08:48:18.962Z,39.51
2018-06-08T08:49:39.951Z,39.03
2018-06-08T08:50:19.032Z,38.93
2018-06-08T08:51:18.981Z,38.93
2018-06-08T08:52:18.968Z,38.84
2018-06-08T08:53:19.026Z,38.92
2018-06-08T08:54:18.978Z,38.92
2018-06-08T08:55:39.997Z,38.82
2018-06-08T08:56:19.005Z,39.11
2018-06-08T08:57:19.006Z,39.31
2018-06-08T08:58:19.027Z,39.31
2018-06-08T08:59:19.029Z,38.92
2018-06-08T09:00:19.054Z,38.92
2018-06-08T09:01:40.073Z,39.01
2018-06-08T09:02:19.051Z,38.93
2018-06-08T09:03:19.059Z,38.93
2018-06-08T09:04:19.067Z,38.84
2018-06-08T09:05:19.339Z,38.93
2018-06-08T09:06:19.085Z,39.03
2018-06-08T09:07:40.105Z,38.37
2018-06-08T09:08:19.103Z,37.98
2018-06-08T09:09:19.114Z,37.62
2018-06-08T09:10:19.122Z,37.15
2018-06-08T09:11:19.151Z,36.55
2018-06-08T09:12:19.140Z,36.18
2018-06-08T09:13:40.167Z,36.08
2018-06-08T09:14:19.167Z,35.88
2018-06-08T09:15:19.200Z,35.71
2018-06-08T09:16:19.183Z,35.11
2018-06-08T09:17:19.188Z,34.53
2018-06-08T09:18:19.209Z,34.63
2018-06-08T09:19:40.222Z,34.82
2018-06-08T09:20:19.314Z,35.03
2018-06-08T09:21:19.242Z,33.97
2018-06-08T09:22:19.259Z,33.38
2018-06-08T09:23:19.254Z,32.80
2018-06-08T09:24:19.265Z,32.42
2018-06-08T09:25:40.304Z,32.04
2018-06-08T09:26:19.283Z,31.24
2018-06-08T09:27:19.344Z,31.93
2018-06-08T09:28:19.301Z,33.22
2018-06-08T09:29:19.327Z,32.62
2018-06-08T09:30:19.330Z,33.10
2018-06-08T09:31:40.349Z,33.11
2018-06-08T09:32:19.350Z,32.64
2018-06-08T09:33:19.375Z,32.72
2018-06-08T09:34:19.373Z,32.13
2018-06-08T09:35:19.380Z,30.88
2018-06-08T09:36:19.782Z,30.69
2018-06-08T09:37:40.414Z,31.07
2018-06-08T09:38:19.414Z,31.09
2018-06-08T09:39:19.434Z,29.82
2018-06-08T09:40:19.490Z,29.80
2018-06-08T09:41:19.457Z,30.69
2018-06-08T09:42:19.509Z,29.91
2018-06-08T09:43:40.485Z,29.91
2018-06-08T09:44:19.491Z,30.88
2018-06-08T09:45:19.502Z,32.44
2018-06-08T09:46:19.527Z,32.24
2018-06-08T09:47:19.532Z,30.76
2018-06-08T09:48:19.536Z,30.19
2018-06-08T09:49:40.641Z,29.60
2018-06-08T09:50:19.622Z,29.48
2018-06-08T09:51:19.572Z,29.68
2018-06-08T09:52:19.587Z,30.86
2018-06-08T09:53:19.593Z,31.16
2018-06-08T09:54:19.606Z,30.86
2018-06-08T09:55:40.631Z,30.94
2018-06-08T09:56:19.641Z,32.28
2018-06-08T09:57:19.647Z,32.77
2018-06-08T09:58:19.656Z,32.20
2018-06-08T09:59:19.670Z,31.82
2018-06-08T10:00:19.704Z,31.34
2018-06-08T10:01:40.702Z,30.68
2018-06-08T10:02:19.704Z,29.72
2018-06-08T10:03:19.730Z,29.54
2018-06-08T10:04:19.729Z,29.14
2018-06-08T10:05:19.816Z,29.05
2018-06-08T10:06:19.754Z,29.05
2018-06-08T10:07:40.776Z,28.48
2018-06-08T10:08:19.841Z,28.35
2018-06-08T10:09:19.820Z,28.53
2018-06-08T10:10:19.799Z,28.64
2018-06-08T10:11:19.818Z,29.13
2018-06-08T10:12:19.831Z,29.23
2018-06-08T10:13:40.850Z,29.32
2018-06-08T10:14:19.848Z,29.60
2018-06-08T10:15:19.862Z,29.60
2018-06-08T10:16:19.892Z,30.75
2018-06-08T10:17:19.889Z,31.60
2018-06-08T10:18:19.903Z,30.93
2018-06-08T10:19:40.929Z,31.03
2018-06-08T10:20:19.927Z,31.21
2018-06-08T10:21:19.945Z,31.72
2018-06-08T10:22:19.952Z,30.75
2018-06-08T10:23:19.958Z,29.60
2018-06-08T10:24:19.971Z,28.93
2018-06-08T10:25:40.995Z,28.53
2018-06-08T10:26:19.993Z,28.45
2018-06-08T10:27:20.034Z,28.35
2018-06-08T10:28:20.034Z,27.58
2018-06-08T10:29:20.028Z,27.86
2018-06-08T10:30:20.045Z,27.66
2018-06-08T10:31:41.069Z,27.76
2018-06-08T10:32:20.093Z,27.84
2018-06-08T10:33:20.082Z,27.45
2018-06-08T10:34:20.098Z,27.07
2018-06-08T10:35:20.110Z,26.10
2018-06-08T10:36:20.119Z,25.43
2018-06-08T10:37:41.150Z,24.46
2018-06-08T10:38:20.644Z,24.48
2018-06-08T10:39:20.168Z,23.00
2018-06-08T10:40:20.184Z,22.71
2018-06-08T10:41:20.193Z,21.53
2018-06-08T10:42:20.206Z,21.33
2018-06-08T10:43:41.236Z,20.94
2018-06-08T10:44:20.235Z,20.45
2018-06-08T10:45:20.246Z,20.25
2018-06-08T10:46:20.262Z,19.35
2018-06-08T10:47:20.275Z,19.35
2018-06-08T10:48:20.290Z,18.37
2018-06-08T10:49:41.354Z,17.97
2018-06-08T10:50:20.320Z,17.49
2018-06-08T10:51:20.608Z,18.37
2018-06-08T10:52:20.351Z,20.46
2018-06-08T10:53:20.700Z,20.37
2018-06-08T10:54:20.384Z,20.46
2018-06-08T10:55:41.413Z,21.53
2018-06-08T10:56:20.417Z,21.53
2018-06-08T10:57:20.433Z,22.03
2018-06-08T10:58:20.446Z,21.23
2018-06-08T10:59:20.459Z,21.74
2018-06-08T11:00:20.515Z,22.34
2018-06-08T11:01:41.506Z,21.54
2018-06-08T11:02:20.752Z,21.83
2018-06-08T11:03:20.527Z,21.43
2018-06-08T11:04:20.538Z,21.24
2018-06-08T11:05:20.564Z,21.24
2018-06-08T11:06:20.637Z,21.35
2018-06-08T11:07:41.630Z,21.24
2018-06-08T11:08:20.609Z,21.14
2018-06-08T11:09:21.076Z,21.53
2018-06-08T11:10:20.640Z,21.03
2018-06-08T11:11:20.649Z,20.95
2018-06-08T11:12:20.666Z,20.76
2018-06-08T11:13:41.693Z,20.27
2018-06-08T11:14:20.697Z,19.79
2018-06-08T11:15:20.715Z,19.49
2018-06-08T11:16:20.737Z,19.12
2018-06-08T11:17:20.774Z,19.41
2018-06-08T11:18:20.895Z,18.43
2018-06-08T11:19:41.791Z,17.82
2018-06-08T11:20:20.796Z,18.12
2018-06-08T11:21:20.809Z,17.93
2018-06-08T11:22:20.824Z,17.53
2018-06-08T11:23:20.843Z,17.34
2018-06-08T11:24:20.862Z,17.54
2018-06-08T11:25:41.891Z,17.33
2018-06-08T11:26:20.893Z,17.41
2018-06-08T11:27:20.910Z,17.90
2018-06-08T11:28:20.960Z,18.18
2018-06-08T11:29:20.940Z,18.48
2018-06-08T11:30:20.970Z,18.19
2018-06-08T11:31:42.014Z,17.90
2018-06-08T11:32:20.992Z,17.79
2018-06-08T11:33:21.008Z,18.55
2018-06-08T11:34:21.031Z,19.84
2018-06-08T11:35:21.042Z,19.82
2018-06-08T11:36:21.063Z,19.73
2018-06-08T11:37:42.091Z,19.82
2018-06-08T11:38:21.099Z,19.23
2018-06-08T11:39:21.145Z,18.94
2018-06-08T11:40:21.491Z,19.15
2018-06-08T11:41:21.144Z,18.37
2018-06-08T11:42:21.161Z,18.55
2018-06-08T11:43:42.190Z,18.35
2018-06-08T11:44:21.190Z,19.71
2018-06-08T11:45:21.205Z,19.50
2018-06-08T11:46:21.234Z,20.48
2018-06-08T11:47:21.241Z,20.79
2018-06-08T11:48:21.253Z,19.92
2018-06-08T11:49:42.281Z,19.12
2018-06-08T11:50:21.283Z,19.71
2018-06-08T11:51:21.295Z,19.43
2018-06-08T11:52:21.313Z,18.56
2018-06-08T11:53:21.331Z,17.88
2018-06-08T11:54:21.342Z,18.16
2018-06-08T11:55:42.375Z,18.54
2018-06-08T11:56:21.372Z,19.31
2018-06-08T11:57:21.395Z,19.81
2018-06-08T11:58:21.406Z,19.21
2018-06-08T11:59:23.037Z,19.71
2018-06-08T12:00:21.442Z,19.41
2018-06-08T12:01:42.519Z,19.81
2018-06-08T12:02:21.465Z,19.13
2018-06-08T12:03:21.484Z,19.04
2018-06-08T12:04:21.497Z,18.65
2018-06-08T12:05:21.516Z,18.25
2018-06-08T12:06:21.531Z,18.54
2018-06-08T12:07:42.563Z,18.33
2018-06-08T12:08:21.577Z,18.33
2018-06-08T12:09:21.576Z,18.84
2018-06-08T12:10:21.581Z,18.04
2018-06-08T12:11:21.932Z,18.16
2018-06-08T12:12:21.620Z,17.48
2018-06-08T12:13:42.646Z,16.59
2018-06-08T12:14:21.651Z,16.51
2018-06-08T12:15:21.662Z,15.93
2018-06-08T12:16:21.681Z,15.44
2018-06-08T12:17:21.707Z,14.45
2018-06-08T12:18:21.718Z,14.06
2018-06-08T12:19:43.361Z,13.87
2018-06-08T12:20:21.744Z,13.98
2018-06-08T12:21:21.774Z,14.16
2018-06-08T12:22:22.517Z,13.85
2018-06-08T12:23:21.797Z,14.26
2018-06-08T12:24:21.816Z,13.96
2018-06-08T12:25:42.851Z,13.84
2018-06-08T12:26:21.851Z,14.24
2018-06-08T12:27:21.865Z,14.35
2018-06-08T12:28:21.884Z,13.85
2018-06-08T12:29:21.900Z,14.15
2018-06-08T12:30:21.919Z,14.75
2018-06-08T12:31:42.950Z,14.86
2018-06-08T12:32:21.952Z,14.75
2018-06-08T12:33:21.971Z,15.62
2018-06-08T12:34:21.988Z,15.80
2018-06-08T12:35:22.013Z,16.68
2018-06-08T12:36:22.023Z,16.68
2018-06-08T12:37:43.055Z,16.98
2018-06-08T12:38:22.058Z,16.78
2018-06-08T12:39:22.084Z,16.80
2018-06-08T12:40:22.092Z,16.49
2018-06-08T12:41:22.115Z,16.10
2018-06-08T12:42:22.341Z,16.00
2018-06-08T12:43:43.157Z,16.89
2018-06-08T12:44:22.165Z,16.58
2018-06-08T12:45:22.229Z,16.86
2018-06-08T12:46:22.191Z,16.37
2018-06-08T12:47:22.208Z,16.57
2018-06-08T12:48:22.229Z,16.48
2018-06-08T12:49:43.259Z,16.28
2018-06-08T12:50:22.260Z,16.00
2018-06-08T12:51:22.313Z,16.49
2018-06-08T12:52:22.287Z,16.09